createdAt,value
2023-05-02T00:01:55.739Z,1.97
2023-05-02T00:04:58.688Z,2.15
2023-05-02T00:08:01.255Z,2.10
2023-05-02T00:11:04.023Z,2.70
2023-05-02T00:14:06.655Z,2.28
2023-05-02T00:17:09.258Z,2.42
2023-05-02T00:20:12.476Z,2.58
2023-05-02T00:23:14.901Z,2.27
2023-05-02T00:26:17.338Z,2.70
2023-05-02T00:29:20.076Z,2.05
2023-05-02T00:32:22.748Z,2.23
2023-05-02T00:35:25.166Z,2.10
2023-05-02T00:38:27.827Z,2.00
2023-05-02T00:41:30.275Z,2.00
2023-05-02T00:44:32.672Z,2.25
2023-05-02T00:47:35.620Z,2.88
2023-05-02T00:50:43.239Z,2.35
2023-05-02T00:53:45.977Z,2.20
2023-05-02T00:56:48.586Z,2.20
2023-05-02T00:59:51.570Z,2.40
2023-05-02T01:03:05.621Z,2.53
2023-05-02T01:06:13.933Z,2.40
2023-05-02T01:09:29.912Z,2.47
2023-05-02T01:12:43.200Z,2.97
2023-05-02T01:15:47.990Z,2.55
2023-05-02T01:18:52.530Z,2.53
2023-05-02T01:21:56.999Z,2.70
2023-05-02T01:25:19.766Z,2.93
2023-05-02T01:28:37.264Z,2.85
2023-05-02T01:31:42.837Z,2.70
2023-05-02T01:34:47.325Z,2.70
2023-05-02T01:37:52.155Z,2.40
2023-05-02T01:40:57.046Z,2.33
2023-05-02T01:44:02.036Z,2.75
2023-05-02T01:47:06.539Z,3.15
2023-05-02T01:50:19.236Z,2.58
2023-05-02T01:53:23.950Z,2.70
2023-05-02T01:56:29.655Z,2.30
2023-05-02T01:59:34.374Z,3.38
2023-05-02T02:02:38.180Z,2.70
2023-05-02T02:05:43.121Z,3.00
2023-05-02T02:08:45.631Z,3.15
2023-05-02T02:11:53.966Z,2.85
2023-05-02T02:15:02.182Z,3.28
2023-05-02T02:18:14.962Z,3.00
2023-05-02T02:21:21.507Z,3.50
2023-05-02T02:24:25.559Z,3.45
2023-05-02T02:27:29.614Z,2.47
2023-05-02T02:30:32.242Z,2.90
2023-05-02T02:33:34.930Z,2.85
2023-05-02T02:36:48.727Z,3.23
2023-05-02T02:39:58.644Z,2.88
2023-05-02T02:43:04.302Z,3.17
2023-05-02T02:46:09.551Z,2.80
2023-05-02T02:49:49.336Z,3.60
2023-05-02T02:53:10.120Z,3.20
2023-05-02T02:56:19.854Z,2.90
2023-05-02T02:59:29.715Z,3.10
2023-05-02T03:02:33.773Z,3.28
2023-05-02T03:05:36.345Z,3.40
2023-05-02T03:08:43.410Z,3.03
2023-05-02T03:11:50.564Z,3.72
2023-05-02T03:15:03.276Z,3.40
2023-05-02T03:18:05.886Z,3.47
2023-05-02T03:21:08.968Z,3.08
2023-05-02T03:24:11.671Z,3.20
2023-05-02T03:27:14.535Z,2.80
2023-05-02T03:30:18.205Z,3.27
2023-05-02T03:33:20.729Z,3.30
2023-05-02T03:36:23.566Z,3.25
2023-05-02T03:39:28.976Z,3.67
2023-05-02T03:42:32.048Z,3.78
2023-05-02T03:45:34.942Z,4.28
2023-05-02T03:48:38.054Z,4.93
2023-05-02T03:51:40.730Z,3.63
2023-05-02T03:54:44.317Z,4.63
2023-05-02T03:57:47.234Z,4.57
2023-05-02T04:00:49.779Z,3.63
2023-05-02T04:03:52.486Z,4.15
2023-05-02T04:06:58.320Z,3.97
2023-05-02T04:10:01.166Z,4.20
2023-05-02T04:13:06.444Z,3.55
2023-05-02T04:16:10.360Z,3.70
2023-05-02T04:19:14.322Z,4.75
2023-05-02T04:22:16.869Z,4.43
2023-05-02T04:25:24.194Z,6.10
2023-05-02T04:28:29.157Z,7.38
2023-05-02T04:31:32.916Z,4.70
2023-05-02T04:34:35.958Z,4.55
2023-05-02T04:37:39.106Z,4.55
2023-05-02T04:40:42.197Z,4.27
2023-05-02T04:43:45.798Z,4.95
2023-05-02T04:46:49.860Z,4.70
2023-05-02T04:49:52.541Z,4.82
2023-05-02T04:52:55.367Z,7.60
2023-05-02T04:55:58.042Z,5.55
2023-05-02T04:59:00.543Z,5.03
2023-05-02T05:02:03.295Z,5.13
2023-05-02T05:05:06.525Z,5.20
2023-05-02T05:08:09.055Z,4.30
2023-05-02T05:11:13.370Z,4.13
2023-05-02T05:14:17.168Z,3.95
2023-05-02T05:17:23.024Z,3.90
2023-05-02T05:20:25.736Z,4.65
2023-05-02T05:23:31.311Z,4.53
2023-05-02T05:26:33.946Z,4.20
2023-05-02T05:29:37.475Z,4.40
2023-05-02T05:32:40.497Z,3.67
2023-05-02T05:35:43.161Z,4.40
2023-05-02T05:38:46.339Z,3.78
2023-05-02T05:41:49.542Z,4.93
2023-05-02T05:44:52.832Z,3.85
2023-05-02T05:47:55.971Z,4.15
2023-05-02T05:51:07.351Z,4.18
2023-05-02T05:54:10.428Z,3.70
2023-05-02T05:57:14.216Z,3.80
2023-05-02T06:00:17.711Z,4.38
2023-05-02T06:03:24.058Z,4.13
2023-05-02T06:06:27.631Z,3.53
2023-05-02T06:09:30.108Z,4.03
2023-05-02T06:12:32.939Z,3.63
2023-05-02T06:15:35.353Z,3.88
2023-05-02T06:18:39.685Z,5.00
2023-05-02T06:21:43.136Z,4.63
2023-05-02T06:24:45.629Z,4.10
2023-05-02T06:27:48.032Z,4.15
2023-05-02T06:31:04.221Z,4.25
2023-05-02T06:34:06.972Z,3.90
2023-05-02T06:37:09.398Z,4.30
2023-05-02T06:40:12.206Z,4.38
2023-05-02T06:43:15.003Z,5.00
2023-05-02T06:46:18.820Z,4.40
2023-05-02T06:49:22.161Z,4.70
2023-05-02T06:52:24.960Z,4.53
2023-05-02T06:55:28.027Z,4.68
2023-05-02T06:58:30.969Z,5.03
2023-05-02T07:01:33.619Z,4.70
2023-05-02T07:04:36.196Z,4.90
2023-05-02T07:07:38.951Z,4.32
2023-05-02T07:10:41.742Z,4.10
2023-05-02T07:13:44.413Z,4.60
2023-05-02T07:16:47.133Z,4.95
2023-05-02T07:19:49.585Z,4.43
2023-05-02T07:22:52.096Z,4.40
2023-05-02T07:25:54.965Z,4.00
2023-05-02T07:28:57.473Z,4.90
2023-05-02T07:32:00.219Z,4.40
2023-05-02T07:35:02.761Z,3.93
2023-05-02T07:38:05.278Z,4.57
2023-05-02T07:41:07.677Z,4.10
2023-05-02T07:44:10.349Z,4.10
2023-05-02T07:47:12.798Z,4.00
2023-05-02T07:50:15.336Z,4.00
2023-05-02T07:53:17.851Z,4.35
2023-05-02T07:56:20.249Z,4.75
2023-05-02T07:59:22.654Z,4.70
2023-05-02T08:02:26.311Z,4.13
2023-05-02T08:05:31.813Z,3.60
2023-05-02T08:08:34.254Z,3.72
2023-05-02T08:11:36.753Z,3.50
2023-05-02T08:14:39.297Z,3.87
2023-05-02T08:17:41.731Z,3.50
2023-05-02T08:20:44.196Z,3.42
2023-05-02T08:23:46.593Z,3.50
2023-05-02T08:26:49.009Z,3.25
2023-05-02T08:29:54.889Z,3.80
2023-05-02T08:32:57.620Z,3.30
2023-05-02T08:36:00.342Z,5.00
2023-05-02T08:39:03.838Z,3.60
2023-05-02T08:42:07.866Z,3.85
2023-05-02T08:45:14.106Z,3.27
2023-05-02T08:48:19.163Z,3.65
2023-05-02T08:51:24.479Z,3.63
2023-05-02T08:54:27.894Z,3.70
2023-05-02T08:57:33.431Z,3.95
2023-05-02T09:00:43.226Z,3.35
2023-05-02T09:03:47.060Z,4.25
2023-05-02T09:06:49.504Z,3.30
2023-05-02T09:09:52.359Z,4.43
2023-05-02T09:12:54.795Z,4.30
2023-05-02T09:16:03.067Z,3.90
2023-05-02T09:19:05.580Z,5.00
2023-05-02T09:22:07.982Z,4.35
2023-05-02T09:25:11.028Z,4.28
2023-05-02T09:28:13.389Z,3.83
2023-05-02T09:31:27.053Z,4.18
2023-05-02T09:34:40.581Z,3.97
2023-05-02T09:37:43.079Z,3.70
2023-05-02T09:40:56.692Z,4.00
2023-05-02T09:43:59.158Z,3.92
2023-05-02T09:47:02.462Z,3.63
2023-05-02T09:50:06.386Z,3.67
2023-05-02T09:53:09.965Z,4.13
2023-05-02T09:56:12.537Z,4.13
2023-05-02T09:59:19.185Z,4.60
2023-05-02T10:02:22.931Z,4.00
2023-05-02T10:05:26.201Z,3.58
2023-05-02T10:08:29.148Z,3.70
2023-05-02T10:11:33.501Z,3.67
2023-05-02T10:14:41.447Z,3.85
2023-05-02T10:17:48.893Z,3.97
2023-05-02T10:21:01.613Z,4.20
2023-05-02T10:24:05.446Z,4.18
2023-05-02T10:27:08.518Z,3.72
2023-05-02T10:30:13.292Z,4.53
2023-05-02T10:33:16.447Z,4.05
2023-05-02T10:36:22.868Z,3.90
2023-05-02T10:39:25.940Z,3.67
2023-05-02T10:42:30.252Z,3.83
2023-05-02T10:45:35.960Z,3.95
2023-05-02T10:48:38.747Z,3.85
2023-05-02T10:51:43.102Z,3.60
2023-05-02T10:54:46.310Z,3.93
2023-05-02T10:58:00.786Z,3.75
2023-05-02T11:01:34.231Z,4.47
2023-05-02T11:05:12.885Z,4.22
2023-05-02T11:08:15.458Z,3.83
2023-05-02T11:11:43.903Z,4.10
2023-05-02T11:14:47.756Z,3.50
2023-05-02T11:18:06.573Z,4.05
2023-05-02T11:21:29.024Z,3.87
2023-05-02T11:24:41.495Z,4.00
2023-05-02T11:27:46.316Z,3.95
2023-05-02T11:30:50.997Z,4.53
2023-05-02T11:34:00.512Z,3.73
2023-05-02T11:37:20.645Z,3.60
2023-05-02T11:40:24.053Z,3.78
2023-05-02T11:43:31.255Z,3.63
2023-05-02T11:46:38.653Z,3.63
2023-05-02T11:49:41.282Z,3.90
2023-05-02T11:52:45.108Z,3.92
2023-05-02T11:55:52.890Z,3.92
2023-05-02T11:58:59.963Z,4.00
2023-05-02T12:02:02.440Z,5.22
2023-05-02T12:05:08.630Z,4.43
2023-05-02T12:08:21.990Z,3.33
2023-05-02T12:11:24.850Z,4.20
2023-05-02T12:14:30.854Z,3.65
2023-05-02T12:17:37.155Z,3.78
2023-05-02T12:20:40.098Z,3.88
2023-05-02T12:23:43.028Z,3.55
2023-05-02T12:26:45.538Z,3.30
2023-05-02T12:29:49.188Z,3.33
2023-05-02T12:32:58.359Z,3.37
2023-05-02T12:36:07.339Z,3.47
2023-05-02T12:39:09.997Z,2.78
2023-05-02T12:42:15.988Z,3.30
2023-05-02T12:45:18.813Z,3.28
2023-05-02T12:48:21.342Z,2.88
2023-05-02T12:51:24.339Z,2.85
2023-05-02T12:54:27.096Z,3.63
2023-05-02T12:57:30.208Z,3.10
2023-05-02T13:00:35.111Z,2.88
2023-05-02T13:03:38.441Z,3.03
2023-05-02T13:06:41.186Z,3.30
2023-05-02T13:09:43.898Z,3.30
2023-05-02T13:12:47.181Z,3.47
2023-05-02T13:15:50.115Z,3.30
2023-05-02T13:18:53.200Z,3.28
2023-05-02T13:21:55.630Z,3.25
2023-05-02T13:24:58.205Z,3.10
2023-05-02T13:28:00.686Z,3.15
2023-05-02T13:31:03.333Z,2.95
2023-05-02T13:34:06.126Z,2.90
2023-05-02T13:37:09.671Z,3.20
2023-05-02T13:40:12.981Z,2.88
2023-05-02T13:43:15.636Z,3.30
2023-05-02T13:46:18.274Z,3.30
2023-05-02T13:49:25.633Z,3.10
2023-05-02T13:52:28.308Z,3.35
2023-05-02T13:55:31.477Z,2.80
2023-05-02T13:58:34.051Z,2.92
2023-05-02T14:01:36.858Z,8.75
2023-05-02T14:04:39.675Z,2.90
2023-05-02T14:07:42.154Z,4.05
2023-05-02T14:10:45.122Z,4.00
2023-05-02T14:13:47.878Z,2.77
2023-05-02T14:16:50.658Z,2.83
2023-05-02T14:19:53.201Z,2.75
2023-05-02T14:22:55.913Z,3.88
2023-05-02T14:25:58.411Z,2.35
2023-05-02T14:29:01.106Z,2.88
2023-05-02T14:32:04.011Z,3.05
2023-05-02T14:35:07.062Z,7.80
2023-05-02T14:38:09.609Z,10.00
2023-05-02T14:41:12.154Z,3.97
2023-05-02T14:44:14.665Z,5.27
2023-05-02T14:47:17.550Z,3.42
2023-05-02T14:50:22.303Z,2.90
2023-05-02T14:53:25.035Z,3.10
2023-05-02T14:56:28.237Z,2.85
2023-05-02T14:59:31.496Z,2.55
2023-05-02T15:02:34.840Z,3.63
2023-05-02T15:05:37.534Z,2.90
2023-05-02T15:08:40.609Z,2.50
2023-05-02T15:11:44.053Z,2.22
2023-05-02T15:14:46.474Z,2.10
2023-05-02T15:17:49.021Z,2.30
2023-05-02T15:20:51.609Z,2.40
2023-05-02T15:23:54.139Z,2.33
2023-05-02T15:26:56.831Z,3.28
2023-05-02T15:29:59.876Z,2.97
2023-05-02T15:33:03.179Z,2.60
2023-05-02T15:36:05.973Z,2.90
2023-05-02T15:39:08.794Z,2.92
2023-05-02T15:42:11.633Z,2.92
2023-05-02T15:45:14.214Z,2.50
2023-05-02T15:48:16.646Z,3.15
2023-05-02T15:51:19.201Z,3.05
2023-05-02T15:54:22.279Z,3.45
2023-05-02T15:57:26.205Z,3.38
2023-05-02T16:00:28.759Z,3.60
2023-05-02T16:03:32.057Z,3.20
2023-05-02T16:06:34.603Z,2.70
2023-05-02T16:09:37.308Z,3.80
2023-05-02T16:12:39.769Z,3.10
2023-05-02T16:15:42.228Z,3.00
2023-05-02T16:18:44.706Z,3.15
2023-05-02T16:21:47.378Z,3.10
2023-05-02T16:24:49.891Z,3.45
2023-05-02T16:27:52.286Z,3.70
2023-05-02T16:30:54.989Z,3.80
2023-05-02T16:33:58.898Z,3.05
2023-05-02T16:37:03.276Z,2.97
2023-05-02T16:41:23.285Z,3.08
2023-05-02T16:44:25.986Z,2.83
2023-05-02T16:47:28.477Z,2.90
2023-05-02T16:51:04.570Z,3.20
2023-05-02T16:54:07.856Z,2.83
2023-05-02T16:57:10.944Z,3.40
2023-05-02T17:00:14.958Z,3.10
2023-05-02T17:03:17.500Z,3.38
2023-05-02T17:06:20.387Z,3.10
2023-05-02T17:09:23.126Z,2.93
2023-05-02T17:12:26.059Z,3.10
2023-05-02T17:15:29.085Z,2.78
2023-05-02T17:18:31.757Z,2.80
2023-05-02T17:21:35.572Z,2.70
2023-05-02T17:24:38.515Z,2.78
2023-05-02T17:27:43.225Z,3.40
2023-05-02T17:30:46.290Z,3.17
2023-05-02T17:33:49.314Z,3.47
2023-05-02T17:36:51.930Z,7.68
2023-05-02T17:39:54.633Z,6.43
2023-05-02T17:42:58.868Z,8.18
2023-05-02T17:46:07.842Z,14.57
2023-05-02T17:49:12.677Z,14.93
2023-05-02T17:52:15.813Z,12.80
2023-05-02T17:55:19.162Z,11.95
2023-05-02T17:58:21.751Z,7.22
2023-05-02T18:01:24.500Z,4.65
2023-05-02T18:05:30.889Z,4.82
2023-05-02T18:08:33.633Z,4.65
2023-05-02T18:11:36.489Z,4.10
2023-05-02T18:14:39.206Z,3.50
2023-05-02T18:17:41.628Z,3.20
2023-05-02T18:20:44.319Z,3.73
2023-05-02T18:23:46.816Z,3.40
2023-05-02T18:26:49.902Z,3.65
2023-05-02T18:29:52.411Z,4.65
2023-05-02T18:32:55.125Z,5.53
2023-05-02T18:35:57.686Z,5.15
2023-05-02T18:39:00.465Z,3.67
2023-05-02T18:42:04.367Z,4.73
2023-05-02T18:45:07.669Z,4.30
2023-05-02T18:48:10.508Z,4.75
2023-05-02T18:51:13.470Z,2.90
2023-05-02T18:54:16.412Z,3.33
2023-05-02T18:57:19.136Z,3.05
2023-05-02T19:00:22.521Z,4.38
2023-05-02T19:03:26.909Z,4.25
2023-05-02T19:06:31.575Z,3.80
2023-05-02T19:09:34.415Z,3.60
2023-05-02T19:12:37.054Z,5.70
2023-05-02T19:15:39.651Z,4.50
2023-05-02T19:18:43.504Z,3.70
2023-05-02T19:21:48.048Z,4.00
2023-05-02T19:24:50.991Z,3.67
2023-05-02T19:27:53.658Z,3.42
2023-05-02T19:30:56.377Z,3.17
2023-05-02T19:33:59.036Z,3.95
2023-05-02T19:37:04.828Z,3.55
2023-05-02T19:40:08.169Z,3.15
2023-05-02T19:43:11.021Z,4.07
2023-05-02T19:46:18.062Z,5.10
2023-05-02T19:49:20.801Z,4.18
2023-05-02T19:52:23.535Z,3.60
2023-05-02T19:55:26.248Z,4.45
2023-05-02T19:58:29.784Z,4.00
2023-05-02T20:01:32.695Z,4.35
2023-05-02T20:04:35.534Z,4.55
2023-05-02T20:07:38.307Z,5.30
2023-05-02T20:10:41.029Z,4.80
2023-05-02T20:13:44.205Z,3.67
2023-05-02T20:16:46.873Z,3.33
2023-05-02T20:19:49.374Z,2.70
2023-05-02T20:22:54.516Z,2.67
2023-05-02T20:25:57.384Z,2.63
2023-05-02T20:29:00.257Z,2.90
2023-05-02T20:32:03.100Z,2.95
2023-05-02T20:35:06.021Z,2.88
2023-05-02T20:38:08.444Z,2.90
2023-05-02T20:41:14.786Z,3.28
2023-05-02T20:44:22.593Z,2.93
2023-05-02T20:47:30.286Z,3.20
2023-05-02T20:50:33.131Z,2.97
2023-05-02T20:53:36.930Z,3.37
2023-05-02T20:56:39.398Z,2.50
2023-05-02T20:59:42.989Z,3.00
2023-05-02T21:02:45.647Z,2.78
2023-05-02T21:05:55.834Z,2.75
2023-05-02T21:08:58.517Z,3.03
2023-05-02T21:12:02.533Z,2.60
2023-05-02T21:15:05.840Z,2.93
2023-05-02T21:18:08.278Z,2.65
2023-05-02T21:21:16.680Z,2.72
2023-05-02T21:24:19.511Z,2.43
2023-05-02T21:27:22.988Z,3.25
2023-05-02T21:30:25.679Z,2.75
2023-05-02T21:33:28.124Z,2.50
2023-05-02T21:36:30.514Z,3.00
2023-05-02T21:39:33.287Z,2.92
2023-05-02T21:42:35.711Z,2.85
2023-05-02T21:45:48.292Z,2.77
2023-05-02T21:48:50.683Z,3.08
2023-05-02T21:51:53.151Z,2.92
2023-05-02T21:54:55.632Z,3.07
2023-05-02T21:57:58.460Z,3.13
2023-05-02T22:01:01.530Z,2.53
2023-05-02T22:04:04.108Z,2.83
2023-05-02T22:07:06.751Z,2.67
2023-05-02T22:10:09.923Z,3.20
2023-05-02T22:13:14.445Z,2.55
2023-05-02T22:16:17.281Z,2.90
2023-05-02T22:19:19.877Z,3.05
2023-05-02T22:22:22.383Z,3.08
2023-05-02T22:25:24.713Z,3.40
2023-05-02T22:28:27.473Z,3.10
2023-05-02T22:31:30.105Z,3.20
2023-05-02T22:34:32.548Z,3.13
2023-05-02T22:37:34.949Z,3.55
2023-05-02T22:40:39.094Z,3.47
2023-05-02T22:43:41.574Z,4.10
2023-05-02T22:46:44.229Z,3.53
2023-05-02T22:49:47.431Z,3.60
2023-05-02T22:52:51.094Z,3.42
2023-05-02T22:55:53.641Z,3.30
2023-05-02T22:58:56.150Z,3.70
2023-05-02T23:02:01.505Z,3.67
2023-05-02T23:05:04.528Z,3.47
2023-05-02T23:08:06.946Z,3.50
2023-05-02T23:11:09.626Z,3.53
2023-05-02T23:14:12.197Z,3.65
2023-05-02T23:17:14.945Z,3.10
2023-05-02T23:20:19.627Z,3.53
2023-05-02T23:23:22.120Z,3.17
2023-05-02T23:26:24.496Z,3.57
2023-05-02T23:29:27.295Z,3.17
2023-05-02T23:32:30.229Z,3.33
2023-05-02T23:35:33.232Z,4.43
2023-05-02T23:38:36.223Z,3.47
2023-05-02T23:41:38.654Z,3.08
2023-05-02T23:44:41.494Z,3.00
2023-05-02T23:47:43.895Z,2.70
2023-05-02T23:50:46.502Z,2.90
2023-05-02T23:53:49.211Z,3.78
2023-05-02T23:56:53.190Z,3.63
2023-05-02T23:59:56.043Z,3.22
